sensor_id;sensor_type;location;lat;lon;timestamp;temperature;humidity
1700;DHT22;847;48.058;7.810;2023-04-24T00:01:00;13.20;94.00
1700;DHT22;847;48.058;7.810;2023-04-24T00:03:27;13.10;94.30
1700;DHT22;847;48.058;7.810;2023-04-24T00:05:55;13.10;94.50
1700;DHT22;847;48.058;7.810;2023-04-24T00:08:24;13.10;94.60
1700;DHT22;847;48.058;7.810;2023-04-24T00:10:51;13.10;94.80
1700;DHT22;847;48.058;7.810;2023-04-24T00:13:18;13.10;94.50
1700;DHT22;847;48.058;7.810;2023-04-24T00:15:45;13.10;94.40
1700;DHT22;847;48.058;7.810;2023-04-24T00:18:12;13.10;94.80
1700;DHT22;847;48.058;7.810;2023-04-24T00:20:39;13.10;94.80
1700;DHT22;847;48.058;7.810;2023-04-24T00:23:07;13.00;95.00
1700;DHT22;847;48.058;7.810;2023-04-24T00:25:34;13.10;94.90
1700;DHT22;847;48.058;7.810;2023-04-24T00:28:01;13.10;94.70
1700;DHT22;847;48.058;7.810;2023-04-24T00:30:27;13.10;94.60
1700;DHT22;847;48.058;7.810;2023-04-24T00:32:55;13.10;95.00
1700;DHT22;847;48.058;7.810;2023-04-24T00:35:21;13.10;94.80
1700;DHT22;847;48.058;7.810;2023-04-24T00:37:48;13.10;94.70
1700;DHT22;847;48.058;7.810;2023-04-24T00:40:16;13.00;95.00
1700;DHT22;847;48.058;7.810;2023-04-24T00:42:43;13.10;94.80
1700;DHT22;847;48.058;7.810;2023-04-24T00:45:10;13.10;94.60
1700;DHT22;847;48.058;7.810;2023-04-24T00:47:38;13.10;94.60
1700;DHT22;847;48.058;7.810;2023-04-24T00:50:07;13.00;95.10
1700;DHT22;847;48.058;7.810;2023-04-24T00:52:34;13.00;95.00
1700;DHT22;847;48.058;7.810;2023-04-24T00:55:01;13.00;94.80
1700;DHT22;847;48.058;7.810;2023-04-24T00:57:30;13.00;94.80
1700;DHT22;847;48.058;7.810;2023-04-24T00:59:57;13.00;94.90
1700;DHT22;847;48.058;7.810;2023-04-24T01:02:24;13.00;94.60
1700;DHT22;847;48.058;7.810;2023-04-24T01:04:52;13.00;94.90
1700;DHT22;847;48.058;7.810;2023-04-24T01:07:19;13.00;95.00
1700;DHT22;847;48.058;7.810;2023-04-24T01:09:48;13.00;94.90
1700;DHT22;847;48.058;7.810;2023-04-24T01:12:16;13.00;94.90
1700;DHT22;847;48.058;7.810;2023-04-24T01:14:45;12.90;94.70
1700;DHT22;847;48.058;7.810;2023-04-24T01:17:11;12.90;94.70
1700;DHT22;847;48.058;7.810;2023-04-24T01:19:38;12.90;95.10
1700;DHT22;847;48.058;7.810;2023-04-24T01:22:10;12.90;95.00
1700;DHT22;847;48.058;7.810;2023-04-24T01:24:38;12.90;95.10
1700;DHT22;847;48.058;7.810;2023-04-24T01:27:04;12.90;95.10
1700;DHT22;847;48.058;7.810;2023-04-24T01:29:31;12.80;95.40
1700;DHT22;847;48.058;7.810;2023-04-24T01:31:59;12.80;95.60
1700;DHT22;847;48.058;7.810;2023-04-24T01:34:26;12.90;95.40
1700;DHT22;847;48.058;7.810;2023-04-24T01:36:53;12.90;95.20
1700;DHT22;847;48.058;7.810;2023-04-24T01:39:22;12.80;95.50
1700;DHT22;847;48.058;7.810;2023-04-24T01:41:51;12.80;95.40
1700;DHT22;847;48.058;7.810;2023-04-24T01:44:18;12.80;95.20
1700;DHT22;847;48.058;7.810;2023-04-24T01:46:45;12.80;95.40
1700;DHT22;847;48.058;7.810;2023-04-24T01:49:12;12.80;95.20
1700;DHT22;847;48.058;7.810;2023-04-24T01:51:38;12.80;95.10
1700;DHT22;847;48.058;7.810;2023-04-24T01:54:05;12.80;95.30
1700;DHT22;847;48.058;7.810;2023-04-24T01:56:34;12.80;95.40
1700;DHT22;847;48.058;7.810;2023-04-24T01:59:02;12.70;96.10
1700;DHT22;847;48.058;7.810;2023-04-24T02:01:33;12.70;95.90
1700;DHT22;847;48.058;7.810;2023-04-24T02:04:01;12.70;96.00
1700;DHT22;847;48.058;7.810;2023-04-24T02:06:28;12.70;96.40
1700;DHT22;847;48.058;7.810;2023-04-24T02:08:56;12.60;96.50
1700;DHT22;847;48.058;7.810;2023-04-24T02:11:23;12.60;96.70
1700;DHT22;847;48.058;7.810;2023-04-24T02:13:51;12.70;96.60
1700;DHT22;847;48.058;7.810;2023-04-24T02:16:18;12.70;97.20
1700;DHT22;847;48.058;7.810;2023-04-24T02:18:47;12.70;97.40
1700;DHT22;847;48.058;7.810;2023-04-24T02:21:14;12.70;97.30
1700;DHT22;847;48.058;7.810;2023-04-24T02:23:41;12.60;98.00
1700;DHT22;847;48.058;7.810;2023-04-24T02:26:07;12.70;97.70
1700;DHT22;847;48.058;7.810;2023-04-24T02:28:34;12.60;97.90
1700;DHT22;847;48.058;7.810;2023-04-24T02:31:03;12.70;97.70
1700;DHT22;847;48.058;7.810;2023-04-24T02:33:30;12.70;97.70
1700;DHT22;847;48.058;7.810;2023-04-24T02:35:57;12.70;97.80
1700;DHT22;847;48.058;7.810;2023-04-24T02:38:24;12.60;97.70
1700;DHT22;847;48.058;7.810;2023-04-24T02:40:50;12.70;97.50
1700;DHT22;847;48.058;7.810;2023-04-24T02:43:17;12.70;97.40
1700;DHT22;847;48.058;7.810;2023-04-24T02:45:44;12.60;97.60
1700;DHT22;847;48.058;7.810;2023-04-24T02:48:12;12.60;97.80
1700;DHT22;847;48.058;7.810;2023-04-24T02:50:39;12.60;98.00
1700;DHT22;847;48.058;7.810;2023-04-24T02:53:06;12.60;97.80
1700;DHT22;847;48.058;7.810;2023-04-24T02:55:32;12.60;98.10
1700;DHT22;847;48.058;7.810;2023-04-24T02:57:59;12.50;98.00
1700;DHT22;847;48.058;7.810;2023-04-24T03:00:26;12.60;97.90
1700;DHT22;847;48.058;7.810;2023-04-24T03:02:53;12.60;97.80
1700;DHT22;847;48.058;7.810;2023-04-24T03:05:21;12.60;97.60
1700;DHT22;847;48.058;7.810;2023-04-24T03:07:48;12.60;98.00
1700;DHT22;847;48.058;7.810;2023-04-24T03:10:15;12.60;98.00
1700;DHT22;847;48.058;7.810;2023-04-24T03:12:42;12.60;98.20
1700;DHT22;847;48.058;7.810;2023-04-24T03:15:09;12.60;97.80
1700;DHT22;847;48.058;7.810;2023-04-24T03:17:36;12.60;97.90
1700;DHT22;847;48.058;7.810;2023-04-24T03:20:04;12.60;97.90
1700;DHT22;847;48.058;7.810;2023-04-24T03:22:33;12.60;98.10
1700;DHT22;847;48.058;7.810;2023-04-24T03:25:00;12.60;98.60
1700;DHT22;847;48.058;7.810;2023-04-24T03:27:26;12.60;98.70
1700;DHT22;847;48.058;7.810;2023-04-24T03:29:53;12.60;99.00
1700;DHT22;847;48.058;7.810;2023-04-24T03:32:21;12.60;98.90
1700;DHT22;847;48.058;7.810;2023-04-24T03:34:48;12.60;99.00
1700;DHT22;847;48.058;7.810;2023-04-24T03:37:15;12.50;99.00
1700;DHT22;847;48.058;7.810;2023-04-24T03:39:43;12.50;99.00
1700;DHT22;847;48.058;7.810;2023-04-24T03:42:10;12.50;99.00
1700;DHT22;847;48.058;7.810;2023-04-24T03:44:37;12.50;99.00
1700;DHT22;847;48.058;7.810;2023-04-24T03:47:04;12.50;99.00
1700;DHT22;847;48.058;7.810;2023-04-24T03:49:30;12.50;99.00
1700;DHT22;847;48.058;7.810;2023-04-24T03:51:57;12.40;99.00
1700;DHT22;847;48.058;7.810;2023-04-24T03:54:24;12.40;99.00
1700;DHT22;847;48.058;7.810;2023-04-24T03:56:52;12.40;99.00
1700;DHT22;847;48.058;7.810;2023-04-24T03:59:19;12.30;99.00
1700;DHT22;847;48.058;7.810;2023-04-24T04:01:46;12.20;99.00
1700;DHT22;847;48.058;7.810;2023-04-24T04:04:13;12.20;99.00
1700;DHT22;847;48.058;7.810;2023-04-24T04:06:40;12.30;99.00
1700;DHT22;847;48.058;7.810;2023-04-24T04:09:06;12.30;99.00
1700;DHT22;847;48.058;7.810;2023-04-24T04:11:34;12.30;99.00
1700;DHT22;847;48.058;7.810;2023-04-24T04:14:02;12.20;99.00
1700;DHT22;847;48.058;7.810;2023-04-24T04:16:29;12.20;99.00
1700;DHT22;847;48.058;7.810;2023-04-24T04:18:56;12.20;99.00
1700;DHT22;847;48.058;7.810;2023-04-24T04:21:22;12.20;99.00
1700;DHT22;847;48.058;7.810;2023-04-24T04:23:49;12.20;99.00
1700;DHT22;847;48.058;7.810;2023-04-24T04:26:16;12.20;99.00
1700;DHT22;847;48.058;7.810;2023-04-24T04:28:44;12.20;99.00
1700;DHT22;847;48.058;7.810;2023-04-24T04:31:14;12.20;99.00
1700;DHT22;847;48.058;7.810;2023-04-24T04:33:41;12.20;99.00
1700;DHT22;847;48.058;7.810;2023-04-24T04:36:07;12.20;99.00
1700;DHT22;847;48.058;7.810;2023-04-24T04:38:34;12.20;99.00
1700;DHT22;847;48.058;7.810;2023-04-24T04:41:02;12.20;99.00
1700;DHT22;847;48.058;7.810;2023-04-24T04:43:29;12.20;99.00
1700;DHT22;847;48.058;7.810;2023-04-24T04:45:57;12.20;99.00
1700;DHT22;847;48.058;7.810;2023-04-24T04:48:25;12.10;99.00
1700;DHT22;847;48.058;7.810;2023-04-24T04:50:52;12.10;99.00
1700;DHT22;847;48.058;7.810;2023-04-24T04:53:19;12.10;99.00
1700;DHT22;847;48.058;7.810;2023-04-24T04:55:46;12.10;99.00
1700;DHT22;847;48.058;7.810;2023-04-24T04:58:13;12.10;99.00
1700;DHT22;847;48.058;7.810;2023-04-24T05:00:40;12.10;99.00
1700;DHT22;847;48.058;7.810;2023-04-24T05:03:07;12.00;99.00
1700;DHT22;847;48.058;7.810;2023-04-24T05:05:35;12.00;99.00
1700;DHT22;847;48.058;7.810;2023-04-24T05:08:06;12.00;99.00
1700;DHT22;847;48.058;7.810;2023-04-24T05:10:32;12.00;99.00
1700;DHT22;847;48.058;7.810;2023-04-24T05:12:59;12.10;99.00
1700;DHT22;847;48.058;7.810;2023-04-24T05:15:26;12.00;99.00
1700;DHT22;847;48.058;7.810;2023-04-24T05:17:53;11.90;99.00
1700;DHT22;847;48.058;7.810;2023-04-24T05:20:20;12.00;99.00
1700;DHT22;847;48.058;7.810;2023-04-24T05:22:48;12.00;99.00
1700;DHT22;847;48.058;7.810;2023-04-24T05:25:14;12.00;99.00
1700;DHT22;847;48.058;7.810;2023-04-24T05:27:41;12.00;99.00
1700;DHT22;847;48.058;7.810;2023-04-24T05:30:09;12.00;99.00
1700;DHT22;847;48.058;7.810;2023-04-24T05:32:36;12.00;99.00
1700;DHT22;847;48.058;7.810;2023-04-24T05:35:03;12.00;99.00
1700;DHT22;847;48.058;7.810;2023-04-24T05:37:29;12.00;99.00
1700;DHT22;847;48.058;7.810;2023-04-24T05:39:58;11.90;99.00
1700;DHT22;847;48.058;7.810;2023-04-24T05:42:24;11.90;99.00
1700;DHT22;847;48.058;7.810;2023-04-24T05:44:51;11.90;99.00
1700;DHT22;847;48.058;7.810;2023-04-24T05:47:19;11.90;99.00
1700;DHT22;847;48.058;7.810;2023-04-24T05:49:47;11.90;99.00
1700;DHT22;847;48.058;7.810;2023-04-24T05:52:13;11.80;99.00
1700;DHT22;847;48.058;7.810;2023-04-24T05:54:40;11.80;99.00
1700;DHT22;847;48.058;7.810;2023-04-24T05:57:08;11.80;99.00
1700;DHT22;847;48.058;7.810;2023-04-24T05:59:37;11.80;99.00
1700;DHT22;847;48.058;7.810;2023-04-24T06:02:04;11.80;99.00
1700;DHT22;847;48.058;7.810;2023-04-24T06:04:32;11.90;99.00
1700;DHT22;847;48.058;7.810;2023-04-24T06:06:59;11.90;99.00
1700;DHT22;847;48.058;7.810;2023-04-24T06:09:26;11.90;99.00
1700;DHT22;847;48.058;7.810;2023-04-24T06:11:53;11.90;99.00
1700;DHT22;847;48.058;7.810;2023-04-24T06:14:21;11.90;99.00
1700;DHT22;847;48.058;7.810;2023-04-24T06:16:48;11.80;99.00
1700;DHT22;847;48.058;7.810;2023-04-24T06:19:15;11.80;99.00
1700;DHT22;847;48.058;7.810;2023-04-24T06:21:41;11.90;99.00
1700;DHT22;847;48.058;7.810;2023-04-24T06:24:08;11.90;99.00
1700;DHT22;847;48.058;7.810;2023-04-24T06:26:35;11.90;99.00
1700;DHT22;847;48.058;7.810;2023-04-24T06:29:02;11.90;99.00
1700;DHT22;847;48.058;7.810;2023-04-24T06:31:30;12.00;99.00
1700;DHT22;847;48.058;7.810;2023-04-24T06:34:00;11.90;99.00
1700;DHT22;847;48.058;7.810;2023-04-24T06:36:27;11.80;99.00
1700;DHT22;847;48.058;7.810;2023-04-24T06:38:54;11.80;99.00
1700;DHT22;847;48.058;7.810;2023-04-24T06:41:21;11.90;99.00
1700;DHT22;847;48.058;7.810;2023-04-24T06:43:47;11.80;99.00
1700;DHT22;847;48.058;7.810;2023-04-24T06:46:14;11.80;99.00
1700;DHT22;847;48.058;7.810;2023-04-24T06:48:43;11.90;99.00
1700;DHT22;847;48.058;7.810;2023-04-24T06:51:09;11.80;99.00
1700;DHT22;847;48.058;7.810;2023-04-24T06:53:36;11.80;99.00
1700;DHT22;847;48.058;7.810;2023-04-24T06:56:03;11.80;99.00
1700;DHT22;847;48.058;7.810;2023-04-24T06:58:30;11.80;99.00
1700;DHT22;847;48.058;7.810;2023-04-24T07:00:57;11.80;99.00
1700;DHT22;847;48.058;7.810;2023-04-24T07:03:24;11.80;98.90
1700;DHT22;847;48.058;7.810;2023-04-24T07:05:52;11.80;99.00
1700;DHT22;847;48.058;7.810;2023-04-24T07:08:19;11.80;98.00
1700;DHT22;847;48.058;7.810;2023-04-24T07:10:46;11.80;98.50
1700;DHT22;847;48.058;7.810;2023-04-24T07:13:13;11.80;97.90
1700;DHT22;847;48.058;7.810;2023-04-24T07:15:40;11.70;97.20
1700;DHT22;847;48.058;7.810;2023-04-24T07:18:07;11.70;96.90
1700;DHT22;847;48.058;7.810;2023-04-24T07:20:34;11.70;96.60
1700;DHT22;847;48.058;7.810;2023-04-24T07:23:02;11.80;96.40
1700;DHT22;847;48.058;7.810;2023-04-24T07:25:28;11.90;96.50
1700;DHT22;847;48.058;7.810;2023-04-24T07:27:57;11.90;95.00
1700;DHT22;847;48.058;7.810;2023-04-24T07:30:23;11.90;95.60
1700;DHT22;847;48.058;7.810;2023-04-24T07:32:50;12.00;96.30
1700;DHT22;847;48.058;7.810;2023-04-24T07:35:17;12.00;95.80
1700;DHT22;847;48.058;7.810;2023-04-24T07:37:45;12.10;95.30
1700;DHT22;847;48.058;7.810;2023-04-24T07:40:13;12.20;94.60
1700;DHT22;847;48.058;7.810;2023-04-24T07:42:40;12.20;94.30
1700;DHT22;847;48.058;7.810;2023-04-24T07:45:07;12.30;94.70
1700;DHT22;847;48.058;7.810;2023-04-24T07:47:34;12.40;94.30
1700;DHT22;847;48.058;7.810;2023-04-24T07:50:02;12.40;94.10
1700;DHT22;847;48.058;7.810;2023-04-24T07:52:28;12.40;92.90
1700;DHT22;847;48.058;7.810;2023-04-24T07:54:55;12.40;93.00
1700;DHT22;847;48.058;7.810;2023-04-24T07:57:25;12.30;92.20
1700;DHT22;847;48.058;7.810;2023-04-24T07:59:52;12.30;91.40
1700;DHT22;847;48.058;7.810;2023-04-24T08:02:19;12.30;92.30
1700;DHT22;847;48.058;7.810;2023-04-24T08:04:47;12.20;91.60
1700;DHT22;847;48.058;7.810;2023-04-24T08:07:13;12.20;91.40
1700;DHT22;847;48.058;7.810;2023-04-24T08:09:41;12.20;90.60
1700;DHT22;847;48.058;7.810;2023-04-24T08:12:08;12.20;90.60
1700;DHT22;847;48.058;7.810;2023-04-24T08:14:36;12.20;90.40
1700;DHT22;847;48.058;7.810;2023-04-24T08:17:02;12.10;90.50
1700;DHT22;847;48.058;7.810;2023-04-24T08:19:29;12.10;90.40
1700;DHT22;847;48.058;7.810;2023-04-24T08:21:56;12.10;89.90
1700;DHT22;847;48.058;7.810;2023-04-24T08:24:23;12.20;90.50
1700;DHT22;847;48.058;7.810;2023-04-24T08:26:50;12.20;89.80
1700;DHT22;847;48.058;7.810;2023-04-24T08:29:19;12.20;89.60
1700;DHT22;847;48.058;7.810;2023-04-24T08:31:47;12.20;89.30
1700;DHT22;847;48.058;7.810;2023-04-24T08:34:14;12.20;85.40
1700;DHT22;847;48.058;7.810;2023-04-24T08:36:41;12.10;82.70
1700;DHT22;847;48.058;7.810;2023-04-24T08:39:07;12.20;85.70
1700;DHT22;847;48.058;7.810;2023-04-24T08:41:34;12.20;83.10
1700;DHT22;847;48.058;7.810;2023-04-24T08:44:02;12.20;84.10
1700;DHT22;847;48.058;7.810;2023-04-24T08:46:30;12.20;82.80
1700;DHT22;847;48.058;7.810;2023-04-24T08:48:58;12.20;82.90
1700;DHT22;847;48.058;7.810;2023-04-24T08:51:26;12.20;83.80
1700;DHT22;847;48.058;7.810;2023-04-24T08:53:54;12.20;83.30
1700;DHT22;847;48.058;7.810;2023-04-24T08:56:22;12.30;82.00
1700;DHT22;847;48.058;7.810;2023-04-24T08:58:50;12.30;80.80
1700;DHT22;847;48.058;7.810;2023-04-24T09:01:18;12.30;80.00
1700;DHT22;847;48.058;7.810;2023-04-24T09:03:47;12.20;80.90
1700;DHT22;847;48.058;7.810;2023-04-24T09:06:17;12.10;79.90
1700;DHT22;847;48.058;7.810;2023-04-24T09:08:45;12.00;80.30
1700;DHT22;847;48.058;7.810;2023-04-24T09:11:13;11.90;78.90
1700;DHT22;847;48.058;7.810;2023-04-24T09:13:40;11.80;78.40
1700;DHT22;847;48.058;7.810;2023-04-24T09:16:07;11.80;79.50
1700;DHT22;847;48.058;7.810;2023-04-24T09:18:34;11.80;79.70
1700;DHT22;847;48.058;7.810;2023-04-24T09:21:02;11.80;80.00
1700;DHT22;847;48.058;7.810;2023-04-24T09:23:31;11.80;80.10
1700;DHT22;847;48.058;7.810;2023-04-24T09:25:59;11.80;79.90
1700;DHT22;847;48.058;7.810;2023-04-24T09:28:29;11.90;80.00
1700;DHT22;847;48.058;7.810;2023-04-24T09:31:07;11.90;79.20
1700;DHT22;847;48.058;7.810;2023-04-24T09:33:34;12.10;79.40
1700;DHT22;847;48.058;7.810;2023-04-24T09:36:01;12.30;79.40
1700;DHT22;847;48.058;7.810;2023-04-24T09:38:34;12.50;81.00
1700;DHT22;847;48.058;7.810;2023-04-24T09:41:01;12.50;79.50
1700;DHT22;847;48.058;7.810;2023-04-24T09:43:29;12.60;80.30
1700;DHT22;847;48.058;7.810;2023-04-24T09:45:57;12.70;79.20
1700;DHT22;847;48.058;7.810;2023-04-24T09:48:31;12.70;78.80
1700;DHT22;847;48.058;7.810;2023-04-24T09:50:58;12.50;77.00
1700;DHT22;847;48.058;7.810;2023-04-24T09:53:26;12.40;77.70
1700;DHT22;847;48.058;7.810;2023-04-24T09:55:55;12.50;78.20
1700;DHT22;847;48.058;7.810;2023-04-24T09:58:25;12.50;76.60
1700;DHT22;847;48.058;7.810;2023-04-24T10:00:54;12.50;75.40
1700;DHT22;847;48.058;7.810;2023-04-24T10:03:24;12.50;76.30
1700;DHT22;847;48.058;7.810;2023-04-24T10:05:52;12.50;75.80
1700;DHT22;847;48.058;7.810;2023-04-24T10:08:20;12.50;76.50
1700;DHT22;847;48.058;7.810;2023-04-24T10:10:47;12.50;75.90
1700;DHT22;847;48.058;7.810;2023-04-24T10:13:15;12.50;76.30
1700;DHT22;847;48.058;7.810;2023-04-24T10:15:42;12.60;74.70
1700;DHT22;847;48.058;7.810;2023-04-24T10:18:09;12.70;75.60
1700;DHT22;847;48.058;7.810;2023-04-24T10:20:40;12.60;74.70
1700;DHT22;847;48.058;7.810;2023-04-24T10:23:07;12.50;73.10
1700;DHT22;847;48.058;7.810;2023-04-24T10:25:35;12.50;74.90
1700;DHT22;847;48.058;7.810;2023-04-24T10:28:03;12.60;75.50
1700;DHT22;847;48.058;7.810;2023-04-24T10:30:32;12.60;74.50
1700;DHT22;847;48.058;7.810;2023-04-24T10:33:01;12.60;76.20
1700;DHT22;847;48.058;7.810;2023-04-24T10:35:30;12.70;76.90
1700;DHT22;847;48.058;7.810;2023-04-24T10:37:59;12.70;75.80
1700;DHT22;847;48.058;7.810;2023-04-24T10:40:30;12.70;75.80
1700;DHT22;847;48.058;7.810;2023-04-24T10:42:57;12.70;75.50
1700;DHT22;847;48.058;7.810;2023-04-24T10:45:24;12.70;74.00
1700;DHT22;847;48.058;7.810;2023-04-24T10:47:56;12.70;75.20
1700;DHT22;847;48.058;7.810;2023-04-24T10:50:23;12.70;76.00
1700;DHT22;847;48.058;7.810;2023-04-24T10:52:51;12.80;74.30
1700;DHT22;847;48.058;7.810;2023-04-24T10:55:41;12.70;73.40
1700;DHT22;847;48.058;7.810;2023-04-24T10:58:08;12.70;74.30
1700;DHT22;847;48.058;7.810;2023-04-24T11:00:37;12.70;74.30
1700;DHT22;847;48.058;7.810;2023-04-24T11:03:06;12.70;75.90
1700;DHT22;847;48.058;7.810;2023-04-24T11:05:49;12.70;74.20
1700;DHT22;847;48.058;7.810;2023-04-24T11:08:22;12.70;74.60
1700;DHT22;847;48.058;7.810;2023-04-24T11:10:56;12.70;73.50
1700;DHT22;847;48.058;7.810;2023-04-24T11:13:24;12.70;75.10
1700;DHT22;847;48.058;7.810;2023-04-24T11:16:13;12.80;73.30
1700;DHT22;847;48.058;7.810;2023-04-24T11:18:42;12.80;74.50
1700;DHT22;847;48.058;7.810;2023-04-24T11:21:11;12.90;74.60
1700;DHT22;847;48.058;7.810;2023-04-24T11:23:39;12.90;74.40
1700;DHT22;847;48.058;7.810;2023-04-24T11:26:12;12.90;73.60
1700;DHT22;847;48.058;7.810;2023-04-24T11:28:45;12.90;74.30
1700;DHT22;847;48.058;7.810;2023-04-24T11:31:34;12.90;74.20
1700;DHT22;847;48.058;7.810;2023-04-24T11:34:10;13.00;75.40
1700;DHT22;847;48.058;7.810;2023-04-24T11:36:37;13.00;75.10
1700;DHT22;847;48.058;7.810;2023-04-24T11:39:05;13.10;76.30
1700;DHT22;847;48.058;7.810;2023-04-24T11:41:32;13.10;75.40
1700;DHT22;847;48.058;7.810;2023-04-24T11:43:59;13.10;75.20
1700;DHT22;847;48.058;7.810;2023-04-24T11:46:28;13.00;75.00
1700;DHT22;847;48.058;7.810;2023-04-24T11:48:55;13.00;75.40
1700;DHT22;847;48.058;7.810;2023-04-24T11:51:24;13.00;74.00
1700;DHT22;847;48.058;7.810;2023-04-24T11:53:52;12.90;75.30
1700;DHT22;847;48.058;7.810;2023-04-24T11:56:19;12.90;76.60
1700;DHT22;847;48.058;7.810;2023-04-24T11:58:48;13.00;74.80
1700;DHT22;847;48.058;7.810;2023-04-24T12:01:14;13.00;75.00
1700;DHT22;847;48.058;7.810;2023-04-24T12:03:41;13.00;77.40
1700;DHT22;847;48.058;7.810;2023-04-24T12:06:12;13.00;75.70
1700;DHT22;847;48.058;7.810;2023-04-24T12:08:40;13.10;76.30
1700;DHT22;847;48.058;7.810;2023-04-24T12:11:07;13.10;75.30
1700;DHT22;847;48.058;7.810;2023-04-24T12:13:35;13.10;74.40
1700;DHT22;847;48.058;7.810;2023-04-24T12:16:03;13.10;76.00
1700;DHT22;847;48.058;7.810;2023-04-24T12:18:31;13.10;75.00
1700;DHT22;847;48.058;7.810;2023-04-24T12:21:16;13.10;76.70
1700;DHT22;847;48.058;7.810;2023-04-24T12:23:44;13.00;76.30
1700;DHT22;847;48.058;7.810;2023-04-24T12:26:11;13.00;76.00
1700;DHT22;847;48.058;7.810;2023-04-24T12:28:39;13.00;78.20
1700;DHT22;847;48.058;7.810;2023-04-24T12:31:06;13.10;79.00
1700;DHT22;847;48.058;7.810;2023-04-24T12:33:34;13.20;78.10
1700;DHT22;847;48.058;7.810;2023-04-24T12:36:01;13.20;76.40
1700;DHT22;847;48.058;7.810;2023-04-24T12:38:29;13.30;77.10
1700;DHT22;847;48.058;7.810;2023-04-24T12:41:04;13.40;77.00
1700;DHT22;847;48.058;7.810;2023-04-24T12:43:31;13.50;75.90
1700;DHT22;847;48.058;7.810;2023-04-24T12:45:58;13.60;76.40
1700;DHT22;847;48.058;7.810;2023-04-24T12:48:25;13.60;75.00
1700;DHT22;847;48.058;7.810;2023-04-24T12:50:52;13.60;75.60
1700;DHT22;847;48.058;7.810;2023-04-24T12:53:19;13.70;77.30
1700;DHT22;847;48.058;7.810;2023-04-24T12:55:45;13.80;77.60
1700;DHT22;847;48.058;7.810;2023-04-24T12:58:19;13.80;76.00
1700;DHT22;847;48.058;7.810;2023-04-24T13:00:46;13.90;75.20
1700;DHT22;847;48.058;7.810;2023-04-24T13:03:14;14.00;74.10
1700;DHT22;847;48.058;7.810;2023-04-24T13:05:42;14.00;73.50
1700;DHT22;847;48.058;7.810;2023-04-24T13:08:08;13.90;72.90
1700;DHT22;847;48.058;7.810;2023-04-24T13:10:35;13.90;74.50
1700;DHT22;847;48.058;7.810;2023-04-24T13:13:02;13.90;74.00
1700;DHT22;847;48.058;7.810;2023-04-24T13:15:31;14.00;73.80
1700;DHT22;847;48.058;7.810;2023-04-24T13:17:58;14.00;71.50
1700;DHT22;847;48.058;7.810;2023-04-24T13:20:24;14.00;72.40
1700;DHT22;847;48.058;7.810;2023-04-24T13:22:51;14.00;72.70
1700;DHT22;847;48.058;7.810;2023-04-24T13:25:18;14.00;72.40
1700;DHT22;847;48.058;7.810;2023-04-24T13:27:45;14.00;72.40
1700;DHT22;847;48.058;7.810;2023-04-24T13:30:12;14.00;72.30
1700;DHT22;847;48.058;7.810;2023-04-24T13:32:41;14.00;71.60
1700;DHT22;847;48.058;7.810;2023-04-24T13:35:08;14.00;71.40
1700;DHT22;847;48.058;7.810;2023-04-24T13:37:35;14.00;72.30
1700;DHT22;847;48.058;7.810;2023-04-24T13:40:02;14.00;72.00
1700;DHT22;847;48.058;7.810;2023-04-24T13:42:31;14.00;73.50
1700;DHT22;847;48.058;7.810;2023-04-24T13:44:58;14.00;71.60
1700;DHT22;847;48.058;7.810;2023-04-24T13:47:25;14.00;72.80
1700;DHT22;847;48.058;7.810;2023-04-24T13:49:53;14.00;72.30
1700;DHT22;847;48.058;7.810;2023-04-24T13:52:20;14.00;73.10
1700;DHT22;847;48.058;7.810;2023-04-24T13:54:46;14.00;72.80
1700;DHT22;847;48.058;7.810;2023-04-24T13:57:14;14.10;72.10
1700;DHT22;847;48.058;7.810;2023-04-24T13:59:41;14.10;71.90
1700;DHT22;847;48.058;7.810;2023-04-24T14:02:08;14.00;72.20
1700;DHT22;847;48.058;7.810;2023-04-24T14:04:35;13.90;72.40
1700;DHT22;847;48.058;7.810;2023-04-24T14:07:03;13.90;74.60
1700;DHT22;847;48.058;7.810;2023-04-24T14:09:29;14.00;74.40
1700;DHT22;847;48.058;7.810;2023-04-24T14:11:56;14.00;75.40
1700;DHT22;847;48.058;7.810;2023-04-24T14:14:23;14.00;75.40
1700;DHT22;847;48.058;7.810;2023-04-24T14:16:50;14.00;75.60
1700;DHT22;847;48.058;7.810;2023-04-24T14:19:17;14.00;75.50
1700;DHT22;847;48.058;7.810;2023-04-24T14:21:43;14.00;75.90
1700;DHT22;847;48.058;7.810;2023-04-24T14:24:12;14.00;75.80
1700;DHT22;847;48.058;7.810;2023-04-24T14:26:38;14.00;75.20
1700;DHT22;847;48.058;7.810;2023-04-24T14:29:05;14.00;75.70
1700;DHT22;847;48.058;7.810;2023-04-24T14:31:32;14.00;75.70
1700;DHT22;847;48.058;7.810;2023-04-24T14:33:59;14.00;76.30
1700;DHT22;847;48.058;7.810;2023-04-24T14:36:25;14.00;76.20
1700;DHT22;847;48.058;7.810;2023-04-24T14:38:52;14.10;76.90
1700;DHT22;847;48.058;7.810;2023-04-24T14:41:20;14.20;77.10
1700;DHT22;847;48.058;7.810;2023-04-24T14:43:47;14.10;77.20
1700;DHT22;847;48.058;7.810;2023-04-24T14:46:14;14.10;77.50
1700;DHT22;847;48.058;7.810;2023-04-24T14:48:41;14.10;77.20
1700;DHT22;847;48.058;7.810;2023-04-24T14:51:08;14.10;77.50
1700;DHT22;847;48.058;7.810;2023-04-24T14:53:35;14.10;77.50
1700;DHT22;847;48.058;7.810;2023-04-24T14:56:01;14.10;77.90
1700;DHT22;847;48.058;7.810;2023-04-24T14:58:30;14.10;77.70
1700;DHT22;847;48.058;7.810;2023-04-24T15:00:56;14.10;77.60
1700;DHT22;847;48.058;7.810;2023-04-24T15:03:23;14.10;76.80
1700;DHT22;847;48.058;7.810;2023-04-24T15:05:52;14.10;77.10
1700;DHT22;847;48.058;7.810;2023-04-24T15:08:18;14.20;76.80
1700;DHT22;847;48.058;7.810;2023-04-24T15:10:46;14.10;75.80
1700;DHT22;847;48.058;7.810;2023-04-24T15:13:13;14.20;75.70
1700;DHT22;847;48.058;7.810;2023-04-24T15:15:41;14.30;75.60
1700;DHT22;847;48.058;7.810;2023-04-24T15:18:08;14.30;75.60
1700;DHT22;847;48.058;7.810;2023-04-24T15:20:36;14.30;75.90
1700;DHT22;847;48.058;7.810;2023-04-24T15:23:04;14.40;76.10
1700;DHT22;847;48.058;7.810;2023-04-24T15:25:31;14.30;76.80
1700;DHT22;847;48.058;7.810;2023-04-24T15:27:58;14.30;76.50
1700;DHT22;847;48.058;7.810;2023-04-24T15:30:25;14.20;76.70
1700;DHT22;847;48.058;7.810;2023-04-24T15:32:53;14.20;77.90
1700;DHT22;847;48.058;7.810;2023-04-24T15:35:20;14.20;77.20
1700;DHT22;847;48.058;7.810;2023-04-24T15:37:47;14.10;76.80
1700;DHT22;847;48.058;7.810;2023-04-24T15:40:14;14.20;76.90
1700;DHT22;847;48.058;7.810;2023-04-24T15:42:42;14.20;77.10
1700;DHT22;847;48.058;7.810;2023-04-24T15:45:10;14.20;76.60
1700;DHT22;847;48.058;7.810;2023-04-24T15:47:37;14.10;75.70
1700;DHT22;847;48.058;7.810;2023-04-24T15:50:06;14.10;76.70
1700;DHT22;847;48.058;7.810;2023-04-24T15:52:34;14.10;75.70
1700;DHT22;847;48.058;7.810;2023-04-24T15:55:02;14.10;74.70
1700;DHT22;847;48.058;7.810;2023-04-24T15:57:29;14.10;75.30
1700;DHT22;847;48.058;7.810;2023-04-24T15:59:55;14.10;74.80
1700;DHT22;847;48.058;7.810;2023-04-24T16:02:22;14.00;74.80
1700;DHT22;847;48.058;7.810;2023-04-24T16:04:49;14.00;74.80
1700;DHT22;847;48.058;7.810;2023-04-24T16:07:18;14.00;74.20
1700;DHT22;847;48.058;7.810;2023-04-24T16:09:45;14.00;74.20
1700;DHT22;847;48.058;7.810;2023-04-24T16:12:12;13.90;74.60
1700;DHT22;847;48.058;7.810;2023-04-24T16:14:39;13.90;74.80
1700;DHT22;847;48.058;7.810;2023-04-24T16:17:06;13.80;74.70
1700;DHT22;847;48.058;7.810;2023-04-24T16:19:33;13.80;76.20